createdAt,value
2018-12-21T00:00:52.173Z,97.30
2018-12-21T00:03:21.375Z,97.20
2018-12-21T00:05:50.651Z,97.10
2018-12-21T00:08:19.747Z,97.10
2018-12-21T00:10:49.058Z,97.00
2018-12-21T00:13:18.442Z,97.00
2018-12-21T00:15:47.700Z,97.10
2018-12-21T00:18:16.931Z,97.20
2018-12-21T00:20:46.399Z,97.10
2018-12-21T00:23:15.707Z,97.10
2018-12-21T00:25:44.974Z,97.00
2018-12-21T00:28:14.688Z,97.00
2018-12-21T00:30:43.040Z,97.00
2018-12-21T00:33:17.891Z,97.00
2018-12-21T00:35:52.514Z,97.00
2018-12-21T00:38:28.777Z,97.00
2018-12-21T00:41:02.715Z,97.00
2018-12-21T00:44:38.946Z,97.00
2018-12-21T00:47:13.797Z,96.80
2018-12-21T00:49:42.635Z,96.70
2018-12-21T00:52:12.040Z,96.60
2018-12-21T00:54:41.407Z,96.60
2018-12-21T00:57:10.986Z,96.50
2018-12-21T00:59:40.499Z,96.50
2018-12-21T01:02:09.933Z,96.40
2018-12-21T01:04:39.267Z,96.40
2018-12-21T01:07:08.539Z,96.40
2018-12-21T01:09:38.541Z,96.20
2018-12-21T01:12:14.407Z,96.10
2018-12-21T01:14:43.674Z,96.40
2018-12-21T01:17:13.012Z,96.00
2018-12-21T01:19:42.069Z,96.40
2018-12-21T01:22:11.299Z,96.10
2018-12-21T01:24:40.730Z,96.20
2018-12-21T01:27:09.993Z,96.20
2018-12-21T01:29:39.419Z,96.10
2018-12-21T01:32:08.857Z,96.10
2018-12-21T01:34:38.030Z,96.10
2018-12-21T01:37:07.436Z,96.00
2018-12-21T01:39:36.811Z,96.00
2018-12-21T01:42:06.522Z,96.20
2018-12-21T01:44:35.742Z,96.30
2018-12-21T01:47:04.974Z,96.30
2018-12-21T01:49:34.278Z,96.20
2018-12-21T01:52:03.334Z,96.30
2018-12-21T01:54:32.581Z,96.20
2018-12-21T01:57:01.687Z,96.20
2018-12-21T01:59:31.015Z,96.40
2018-12-21T02:02:00.124Z,96.30
2018-12-21T02:04:29.409Z,96.30
2018-12-21T02:06:58.682Z,96.20
2018-12-21T02:09:27.969Z,96.10
2018-12-21T02:11:57.411Z,96.20
2018-12-21T02:14:26.462Z,96.20
2018-12-21T02:16:55.591Z,96.10
2018-12-21T02:19:25.049Z,96.10
2018-12-21T02:21:55.977Z,96.10
2018-12-21T02:24:25.411Z,96.20
2018-12-21T02:26:54.966Z,96.20
2018-12-21T02:29:24.248Z,96.20
2018-12-21T02:31:53.559Z,96.30
2018-12-21T02:34:22.794Z,96.20
2018-12-21T02:36:51.817Z,96.20
2018-12-21T02:39:21.031Z,96.20
2018-12-21T02:41:50.227Z,96.20
2018-12-21T02:44:19.419Z,96.50
2018-12-21T02:46:48.707Z,96.60
2018-12-21T02:49:17.701Z,96.80
2018-12-21T02:51:47.220Z,97.00
2018-12-21T02:54:16.677Z,97.00
2018-12-21T02:56:45.714Z,97.10
2018-12-21T02:59:14.952Z,97.10
2018-12-21T03:01:44.146Z,97.10
2018-12-21T03:04:13.505Z,96.60
2018-12-21T03:06:42.859Z,96.80
2018-12-21T03:09:12.520Z,96.70
2018-12-21T03:11:41.675Z,96.80
2018-12-21T03:14:10.936Z,96.60
2018-12-21T03:16:40.192Z,96.60
2018-12-21T03:19:16.270Z,96.60
2018-12-21T03:21:45.770Z,96.60
2018-12-21T03:24:15.142Z,96.50
2018-12-21T03:26:44.673Z,96.50
2018-12-21T03:29:13.778Z,96.50
2018-12-21T03:31:43.000Z,96.60
2018-12-21T03:34:12.128Z,96.40
2018-12-21T03:36:41.251Z,96.50
2018-12-21T03:39:10.546Z,96.00
2018-12-21T03:41:39.671Z,95.80
2018-12-21T03:44:08.951Z,95.60
2018-12-21T03:46:38.668Z,95.50
2018-12-21T03:49:07.796Z,95.40
2018-12-21T03:51:36.909Z,95.40
2018-12-21T03:54:05.911Z,95.30
2018-12-21T03:56:35.075Z,95.30
2018-12-21T03:59:04.094Z,95.10
2018-12-21T04:01:33.258Z,95.00
2018-12-21T04:04:02.422Z,95.00
2018-12-21T04:06:31.442Z,94.80
2018-12-21T04:09:00.695Z,94.70
2018-12-21T04:11:29.818Z,94.50
2018-12-21T04:13:58.758Z,94.40
2018-12-21T04:16:27.740Z,94.30
2018-12-21T04:18:57.062Z,94.20
2018-12-21T04:21:26.258Z,94.20
2018-12-21T04:23:55.583Z,94.00
2018-12-21T04:26:24.619Z,93.90
2018-12-21T04:31:44.702Z,93.90
2018-12-21T04:34:13.737Z,93.80
2018-12-21T04:36:43.066Z,93.80
2018-12-21T04:39:12.310Z,94.00
2018-12-21T04:41:41.511Z,93.90
2018-12-21T04:44:10.686Z,93.90
2018-12-21T04:46:39.736Z,93.80
2018-12-21T04:49:10.180Z,93.70
2018-12-21T04:51:39.721Z,93.70
2018-12-21T04:54:08.832Z,93.50
2018-12-21T04:56:37.982Z,93.50
2018-12-21T04:59:09.593Z,93.60
2018-12-21T05:01:39.215Z,93.60
2018-12-21T05:04:08.347Z,93.60
2018-12-21T05:06:38.133Z,93.50
2018-12-21T05:09:07.946Z,93.60
2018-12-21T05:11:37.202Z,93.40
2018-12-21T05:14:08.090Z,93.50
2018-12-21T05:16:37.812Z,93.30
2018-12-21T05:19:06.954Z,93.20
2018-12-21T05:21:36.143Z,93.30
2018-12-21T05:24:05.280Z,93.30
2018-12-21T05:26:34.442Z,93.30
2018-12-21T05:29:04.095Z,93.30
2018-12-21T05:31:33.421Z,93.40
2018-12-21T05:34:02.531Z,93.60
2018-12-21T05:36:31.999Z,93.90
2018-12-21T05:39:01.192Z,94.00
2018-12-21T05:41:30.392Z,94.10
2018-12-21T05:43:59.579Z,94.30
2018-12-21T05:46:28.668Z,94.30
2018-12-21T05:48:57.891Z,94.30
2018-12-21T05:51:27.070Z,94.30
2018-12-21T05:53:56.122Z,94.30
2018-12-21T05:56:25.684Z,94.20
2018-12-21T05:58:54.855Z,94.20
2018-12-21T06:01:24.305Z,94.20
2018-12-21T06:03:53.540Z,94.30
2018-12-21T06:06:22.772Z,94.30
2018-12-21T06:08:52.023Z,94.40
2018-12-21T06:11:21.289Z,94.80
2018-12-21T06:13:50.486Z,94.90
2018-12-21T06:16:19.847Z,95.30
2018-12-21T06:18:49.061Z,95.40
2018-12-21T06:21:18.423Z,95.60
2018-12-21T06:23:47.627Z,95.60
2018-12-21T06:26:16.790Z,95.80
2018-12-21T06:28:46.084Z,95.90
2018-12-21T06:31:15.268Z,95.40
2018-12-21T06:33:44.852Z,95.00
2018-12-21T06:36:14.145Z,94.90
2018-12-21T06:38:43.430Z,94.00
2018-12-21T06:41:12.527Z,94.30
2018-12-21T06:43:41.819Z,94.40
2018-12-21T06:46:14.272Z,94.50
2018-12-21T06:48:42.503Z,94.60
2018-12-21T06:51:11.959Z,94.50
2018-12-21T06:53:41.305Z,94.90
2018-12-21T06:56:10.447Z,94.90
2018-12-21T06:58:39.685Z,95.40
2018-12-21T07:01:09.188Z,96.20
2018-12-21T07:03:38.443Z,96.30
2018-12-21T07:06:07.604Z,97.00
2018-12-21T07:08:37.003Z,97.00
2018-12-21T07:11:06.419Z,97.30
2018-12-21T07:13:35.967Z,97.60
2018-12-21T07:16:05.919Z,97.90
2018-12-21T07:18:35.575Z,98.30
2018-12-21T07:21:05.571Z,98.30
2018-12-21T07:23:34.846Z,98.50
2018-12-21T07:26:03.724Z,98.30
2018-12-21T07:28:32.739Z,98.90
2018-12-21T07:31:07.549Z,98.80
2018-12-21T07:36:08.647Z,99.00
2018-12-21T07:38:38.501Z,99.30
2018-12-21T07:41:07.735Z,99.40
2018-12-21T07:43:37.127Z,99.30
2018-12-21T07:46:06.556Z,99.20
2018-12-21T07:48:35.808Z,99.30
2018-12-21T07:51:04.902Z,99.50
2018-12-21T07:53:36.008Z,99.90
2018-12-21T07:56:05.247Z,99.90
2018-12-21T07:58:34.716Z,99.50
2018-12-21T08:01:03.984Z,99.10
2018-12-21T08:03:33.319Z,99.40
2018-12-21T08:06:02.759Z,99.30
2018-12-21T08:08:31.972Z,99.70
2018-12-21T08:11:01.422Z,99.90
2018-12-21T08:13:30.921Z,99.80
2018-12-21T08:16:00.135Z,99.80
2018-12-21T08:18:31.574Z,99.90
2018-12-21T08:21:00.878Z,99.80
2018-12-21T08:23:31.203Z,99.70
2018-12-21T08:26:00.519Z,99.90
2018-12-21T08:28:31.890Z,99.90
2018-12-21T08:31:00.956Z,99.90
2018-12-21T08:33:30.328Z,99.90
2018-12-21T08:35:59.739Z,99.90
2018-12-21T08:38:28.811Z,99.90
2018-12-21T08:40:59.054Z,99.90
2018-12-21T08:43:28.282Z,99.90
2018-12-21T08:45:57.435Z,99.90
2018-12-21T08:48:26.546Z,99.90
2018-12-21T08:50:56.030Z,99.90
2018-12-21T08:53:26.176Z,99.90
2018-12-21T08:55:55.383Z,99.90
2018-12-21T08:58:25.065Z,99.90
2018-12-21T09:00:54.753Z,99.90
2018-12-21T09:03:23.973Z,99.90
2018-12-21T09:05:53.181Z,99.90
2018-12-21T09:08:22.673Z,99.90
2018-12-21T09:10:51.861Z,99.90
2018-12-21T09:13:20.923Z,99.90
2018-12-21T09:15:50.369Z,99.90
2018-12-21T09:18:19.603Z,99.90
2018-12-21T09:20:48.815Z,99.90
2018-12-21T09:23:18.152Z,99.90
2018-12-21T09:25:47.742Z,99.90
2018-12-21T09:28:16.838Z,99.90
2018-12-21T09:30:46.766Z,99.90
2018-12-21T09:33:15.949Z,99.90
2018-12-21T09:35:45.667Z,99.90
2018-12-21T09:38:14.959Z,99.90
2018-12-21T09:40:44.660Z,99.90
2018-12-21T09:43:13.998Z,99.90
2018-12-21T09:45:43.414Z,99.90
2018-12-21T09:48:12.562Z,99.90
2018-12-21T09:50:42.195Z,99.90
2018-12-21T09:53:11.585Z,99.90
2018-12-21T09:55:40.903Z,99.90
2018-12-21T09:58:10.227Z,99.90
2018-12-21T10:00:39.757Z,99.90
2018-12-21T10:03:09.419Z,99.90
2018-12-21T10:05:40.456Z,99.90
2018-12-21T10:08:09.793Z,99.90
2018-12-21T10:10:39.254Z,99.90
2018-12-21T10:13:08.637Z,99.90
2018-12-21T10:15:38.180Z,99.90
2018-12-21T10:18:07.661Z,99.90
2018-12-21T10:20:36.913Z,99.90
2018-12-21T10:23:06.275Z,99.90
2018-12-21T10:25:35.462Z,99.90
2018-12-21T10:28:04.856Z,99.90
2018-12-21T10:30:34.498Z,99.90
2018-12-21T10:33:03.982Z,99.90
2018-12-21T10:35:33.300Z,99.90
2018-12-21T10:38:02.673Z,99.90
2018-12-21T10:40:32.113Z,99.90
2018-12-21T10:43:00.930Z,99.90
2018-12-21T10:45:30.307Z,99.90
2018-12-21T10:48:00.197Z,99.90
2018-12-21T10:50:29.639Z,99.90
2018-12-21T10:53:00.253Z,99.90
2018-12-21T10:55:29.443Z,99.90
2018-12-21T10:57:58.775Z,99.90
2018-12-21T11:00:28.876Z,99.90
2018-12-21T11:02:58.190Z,99.90
2018-12-21T11:05:27.718Z,99.90
2018-12-21T11:07:56.872Z,99.80
2018-12-21T11:10:26.299Z,99.50
2018-12-21T11:12:55.646Z,99.10
2018-12-21T11:15:24.812Z,99.10
2018-12-21T11:17:53.987Z,98.50
2018-12-21T11:20:23.210Z,98.10
2018-12-21T11:22:53.001Z,98.60
2018-12-21T11:25:22.322Z,98.30
2018-12-21T11:27:51.440Z,98.00
2018-12-21T11:30:20.736Z,98.40
2018-12-21T11:32:49.893Z,98.20
2018-12-21T11:35:19.341Z,98.40
2018-12-21T11:37:52.279Z,98.40
2018-12-21T11:40:21.242Z,98.40
2018-12-21T11:42:50.657Z,98.50
2018-12-21T11:45:19.720Z,98.60
2018-12-21T11:47:49.109Z,98.50
2018-12-21T11:50:18.623Z,98.10
2018-12-21T11:52:47.734Z,98.30
2018-12-21T11:55:16.839Z,98.30
2018-12-21T11:57:45.890Z,98.20
2018-12-21T12:00:20.821Z,98.20
2018-12-21T12:02:51.005Z,97.90
2018-12-21T12:05:20.215Z,98.10
2018-12-21T12:07:49.597Z,98.30
2018-12-21T12:10:18.811Z,98.30
2018-12-21T12:12:48.031Z,98.30
2018-12-21T12:15:17.323Z,98.00
2018-12-21T12:17:46.597Z,98.60
2018-12-21T12:20:16.258Z,99.00
2018-12-21T12:22:45.595Z,98.80
2018-12-21T12:25:14.767Z,98.80
2018-12-21T12:27:44.032Z,98.70
2018-12-21T12:30:13.478Z,98.60
2018-12-21T12:32:42.795Z,98.40
2018-12-21T12:35:12.050Z,98.60
2018-12-21T12:37:41.419Z,98.40
2018-12-21T12:40:10.746Z,98.00
2018-12-21T12:42:40.711Z,98.00
2018-12-21T12:45:09.963Z,98.00
2018-12-21T12:47:39.179Z,98.00
2018-12-21T12:50:08.770Z,98.20
2018-12-21T12:52:38.032Z,98.30
2018-12-21T12:55:07.701Z,98.30
2018-12-21T12:57:37.135Z,98.30
2018-12-21T13:00:08.682Z,98.40
2018-12-21T13:02:37.995Z,98.60
2018-12-21T13:05:09.284Z,98.60
2018-12-21T13:07:38.714Z,98.70
2018-12-21T13:10:14.953Z,98.70
2018-12-21T13:12:44.990Z,98.80
2018-12-21T13:15:14.379Z,98.50
2018-12-21T13:17:43.428Z,99.00
2018-12-21T13:20:12.993Z,98.90
2018-12-21T13:22:42.559Z,99.20
2018-12-21T13:25:11.973Z,99.10
2018-12-21T13:27:41.315Z,99.60
2018-12-21T13:30:12.011Z,99.90
2018-12-21T13:32:41.587Z,99.90
2018-12-21T13:35:10.829Z,99.90
2018-12-21T13:37:39.807Z,99.90
2018-12-21T13:40:11.827Z,99.90
2018-12-21T13:42:41.157Z,99.90
2018-12-21T13:45:11.241Z,99.90
2018-12-21T13:47:40.573Z,99.90
2018-12-21T13:50:14.822Z,99.90
2018-12-21T13:52:44.109Z,99.90
2018-12-21T13:55:20.199Z,99.90
2018-12-21T13:57:44.695Z,99.90
2018-12-21T14:00:13.927Z,99.90
2018-12-21T14:02:42.859Z,99.90
2018-12-21T14:05:12.243Z,99.90
2018-12-21T14:07:41.398Z,99.90
2018-12-21T14:10:15.222Z,99.90
2018-12-21T14:12:44.644Z,99.90
2018-12-21T14:15:13.923Z,99.90
2018-12-21T14:17:43.158Z,99.90
2018-12-21T14:20:12.644Z,99.90
2018-12-21T14:22:41.884Z,99.90
2018-12-21T14:25:11.354Z,99.70
2018-12-21T14:27:40.580Z,99.50
2018-12-21T14:30:10.523Z,99.40
2018-12-21T14:32:39.925Z,99.20
2018-12-21T14:35:09.353Z,99.20
2018-12-21T14:37:38.939Z,99.30
2018-12-21T14:40:08.424Z,98.80
2018-12-21T14:42:37.709Z,98.70
2018-12-21T14:45:07.371Z,98.70
2018-12-21T14:47:37.057Z,98.40
2018-12-21T14:50:07.707Z,98.50
2018-12-21T14:52:36.615Z,98.40
2018-12-21T14:55:06.970Z,98.20
2018-12-21T14:57:36.940Z,98.30
2018-12-21T15:00:10.822Z,98.20
2018-12-21T15:02:40.662Z,98.10
2018-12-21T15:05:10.563Z,97.70
2018-12-21T15:07:39.996Z,98.10
2018-12-21T15:10:10.404Z,98.30
2018-12-21T15:12:39.881Z,98.50
2018-12-21T15:15:11.540Z,98.10
2018-12-21T15:17:40.878Z,98.00
2018-12-21T15:20:11.018Z,97.80
2018-12-21T15:22:40.358Z,97.90
2018-12-21T15:25:09.735Z,97.70
2018-12-21T15:27:39.166Z,97.90
2018-12-21T15:30:10.675Z,98.20
2018-12-21T15:32:40.127Z,98.30
2018-12-21T15:35:09.339Z,98.40
2018-12-21T15:37:39.024Z,98.10
2018-12-21T15:40:08.903Z,97.80
2018-12-21T15:42:38.064Z,98.10
2018-12-21T15:45:07.375Z,97.80
2018-12-21T15:47:36.652Z,97.50
2018-12-21T15:50:07.452Z,97.20
2018-12-21T15:52:37.166Z,96.90
2018-12-21T15:55:06.572Z,96.90
2018-12-21T15:57:36.281Z,96.90
2018-12-21T16:00:07.802Z,96.80
2018-12-21T16:02:37.022Z,96.60
2018-12-21T16:05:06.431Z,96.70
2018-12-21T16:07:35.699Z,96.40
2018-12-21T16:10:05.052Z,96.20
2018-12-21T16:12:34.311Z,96.10
2018-12-21T16:15:05.967Z,96.00
2018-12-21T16:17:35.210Z,95.90
2018-12-21T16:20:07.453Z,95.70
2018-12-21T16:22:42.349Z,95.60
2018-12-21T16:25:07.852Z,95.50
2018-12-21T16:27:37.590Z,95.70
2018-12-21T16:30:09.955Z,95.70
2018-12-21T16:32:39.219Z,95.40
2018-12-21T16:35:08.882Z,95.50
2018-12-21T16:37:38.583Z,95.50
2018-12-21T16:40:09.845Z,95.50
2018-12-21T16:42:38.602Z,95.00
2018-12-21T16:45:10.075Z,95.10
2018-12-21T16:47:39.124Z,95.20
2018-12-21T16:50:12.127Z,95.10
2018-12-21T16:52:41.235Z,95.10
2018-12-21T16:55:10.703Z,95.00
2018-12-21T16:57:40.207Z,94.90
2018-12-21T17:00:13.035Z,95.00
2018-12-21T17:02:42.298Z,95.00
2018-12-21T17:05:11.463Z,94.90
2018-12-21T17:07:40.699Z,94.80
2018-12-21T17:10:18.809Z,94.60
2018-12-21T17:12:48.485Z,94.60
2018-12-21T17:15:18.145Z,94.70
2018-12-21T17:17:47.667Z,94.40
2018-12-21T17:20:17.019Z,94.50
2018-12-21T17:22:46.458Z,94.70
2018-12-21T17:25:15.714Z,94.70
2018-12-21T17:27:45.346Z,94.70
2018-12-21T17:30:14.602Z,94.60
2018-12-21T17:32:43.886Z,94.50
2018-12-21T17:35:12.880Z,94.40
2018-12-21T17:37:42.232Z,94.40
2018-12-21T17:40:11.923Z,94.30
2018-12-21T17:42:41.151Z,94.30
2018-12-21T17:45:12.503Z,94.30
2018-12-21T17:47:47.012Z,94.50
2018-12-21T17:50:17.686Z,94.50
2018-12-21T17:52:46.897Z,94.30
2018-12-21T17:55:16.290Z,94.30
2018-12-21T17:57:45.503Z,94.30
2018-12-21T18:00:18.874Z,94.30
2018-12-21T18:02:51.929Z,94.70
2018-12-21T18:05:21.395Z,94.40
2018-12-21T18:07:50.573Z,94.30
2018-12-21T18:10:19.942Z,94.30
2018-12-21T18:12:49.294Z,94.20
2018-12-21T18:15:18.399Z,94.10
2018-12-21T18:17:47.789Z,94.10
2018-12-21T18:20:17.512Z,94.20
2018-12-21T18:22:46.823Z,94.30
2018-12-21T18:25:18.927Z,94.20
2018-12-21T18:27:50.841Z,94.00
2018-12-21T18:30:53.728Z,94.00
2018-12-21T18:33:24.443Z,94.00
2018-12-21T18:35:53.838Z,94.10
2018-12-21T18:38:25.743Z,94.10
2018-12-21T18:40:55.322Z,94.10
2018-12-21T18:43:25.028Z,94.00
2018-12-21T18:45:54.395Z,94.10
2018-12-21T18:48:24.451Z,93.90
2018-12-21T18:50:53.850Z,94.10
2018-12-21T18:53:23.002Z,94.10
2018-12-21T18:55:53.019Z,94.10
2018-12-21T18:58:22.127Z,94.10
2018-12-21T19:00:51.527Z,94.10
2018-12-21T19:03:20.690Z,93.90
2018-12-21T19:05:49.864Z,94.00
2018-12-21T19:08:18.922Z,94.10
2018-12-21T19:10:47.975Z,94.20
2018-12-21T19:13:17.353Z,94.30
2018-12-21T19:15:46.451Z,94.60
2018-12-21T19:18:15.829Z,94.80
2018-12-21T19:20:45.947Z,94.80
2018-12-21T19:23:15.285Z,94.80
2018-12-21T19:25:44.701Z,94.70
2018-12-21T19:28:14.006Z,94.60
2018-12-21T19:30:43.565Z,94.60
2018-12-21T19:33:12.902Z,94.70
2018-12-21T19:35:42.065Z,94.80
2018-12-21T19:38:11.095Z,94.70
2018-12-21T19:40:40.348Z,94.90
2018-12-21T19:43:09.314Z,95.00
2018-12-21T19:45:38.206Z,94.90
2018-12-21T19:48:07.311Z,94.80
2018-12-21T19:50:49.191Z,94.90
2018-12-21T19:53:18.404Z,94.90
2018-12-21T19:55:52.046Z,94.70
2018-12-21T19:58:21.577Z,94.60
2018-12-21T20:00:51.322Z,94.80
2018-12-21T20:03:20.678Z,94.70
2018-12-21T20:05:49.753Z,94.80
2018-12-21T20:08:18.829Z,94.90
2018-12-21T20:10:48.134Z,95.00
2018-12-21T20:13:17.431Z,95.10
2018-12-21T20:15:46.730Z,95.30
2018-12-21T20:18:15.926Z,95.50
2018-12-21T20:20:45.091Z,95.60
2018-12-21T20:23:14.934Z,96.10
2018-12-21T20:25:45.022Z,95.70
2018-12-21T20:28:14.526Z,95.80
2018-12-21T20:30:44.023Z,95.90
2018-12-21T20:33:13.314Z,96.10
2018-12-21T20:35:42.824Z,96.10
2018-12-21T20:38:12.060Z,96.10
2018-12-21T20:40:41.633Z,96.10
2018-12-21T20:43:10.543Z,96.10
2018-12-21T20:45:39.603Z,96.50
2018-12-21T20:48:08.512Z,96.30
2018-12-21T20:50:37.715Z,96.40
2018-12-21T20:53:06.893Z,96.50
2018-12-21T20:55:36.129Z,96.60
2018-12-21T20:58:13.104Z,96.70
2018-12-21T21:00:42.317Z,96.80
2018-12-21T21:03:11.330Z,96.90
2018-12-21T21:05:40.541Z,97.00
2018-12-21T21:08:09.803Z,97.00
2018-12-21T21:10:39.229Z,97.00
2018-12-21T21:13:08.243Z,97.10
2018-12-21T21:15:37.652Z,97.20
2018-12-21T21:18:06.995Z,97.50
2018-12-21T21:20:36.192Z,97.60
2018-12-21T21:23:05.297Z,97.70
2018-12-21T21:25:34.682Z,97.90
2018-12-21T21:28:03.926Z,98.00
2018-12-21T21:30:35.979Z,98.10
2018-12-21T21:33:05.354Z,98.10
2018-12-21T21:35:34.792Z,98.30
2018-12-21T21:38:04.047Z,98.30
2018-12-21T21:40:33.614Z,98.40
2018-12-21T21:43:03.099Z,98.40
2018-12-21T21:45:32.317Z,98.60
2018-12-21T21:48:01.447Z,98.70
2018-12-21T21:50:31.001Z,99.10
2018-12-21T21:53:00.274Z,98.90
2018-12-21T21:55:29.474Z,99.00
2018-12-21T21:57:58.840Z,98.80
2018-12-21T22:00:28.503Z,98.60
2018-12-21T22:02:57.890Z,98.60
2018-12-21T22:05:27.474Z,98.30
2018-12-21T22:07:56.859Z,98.10
2018-12-21T22:10:25.953Z,97.80
2018-12-21T22:12:55.121Z,97.60
2018-12-21T22:15:24.478Z,97.40
2018-12-21T22:17:54.011Z,97.40
2018-12-21T22:20:23.190Z,97.60
2018-12-21T22:22:52.637Z,97.80
2018-12-21T22:25:21.709Z,97.80
2018-12-21T22:27:50.812Z,98.00
2018-12-21T22:30:20.178Z,98.10
2018-12-21T22:32:49.402Z,98.40
2018-12-21T22:35:18.861Z,98.40
2018-12-21T22:37:48.038Z,98.40
2018-12-21T22:40:17.711Z,98.50
2018-12-21T22:42:47.040Z,98.60
2018-12-21T22:45:17.321Z,98.60
2018-12-21T22:47:46.838Z,98.80
2018-12-21T22:50:16.140Z,98.70
2018-12-21T22:52:45.133Z,98.60
2018-12-21T22:55:14.590Z,98.50
2018-12-21T22:57:46.198Z,98.50
2018-12-21T23:00:23.039Z,98.80
2018-12-21T23:02:52.110Z,99.10
2018-12-21T23:05:21.167Z,99.30
2018-12-21T23:07:50.587Z,99.50
2018-12-21T23:10:19.993Z,99.80
2018-12-21T23:12:49.137Z,99.90
2018-12-21T23:15:18.241Z,99.90
2018-12-21T23:17:47.456Z,99.90
2018-12-21T23:20:16.562Z,99.90
2018-12-21T23:22:46.121Z,99.90
2018-12-21T23:25:15.334Z,99.90
2018-12-21T23:27:45.140Z,99.90
2018-12-21T23:30:14.732Z,99.90
2018-12-21T23:32:43.760Z,99.90
2018-12-21T23:35:12.786Z,99.90
2018-12-21T23:37:42.055Z,99.90
2018-12-21T23:40:11.497Z,99.90
2018-12-21T23:42:40.701Z,99.90
2018-12-21T23:45:09.793Z,99.90
2018-12-21T23:47:39.017Z,99.90
2018-12-21T23:50:08.290Z,99.90
2018-12-21T23:52:37.395Z,99.90
2018-12-21T23:55:07.343Z,99.90
2018-12-21T23:57:36.615Z,99.80
